This is the latest recevied weather packets stored in our database for station/object SV2HZE-18. If no packets are shown the sender has not sent any weather packets the latest 10 day(s).
| Time | Temp. | Humidity | Pressure | Rain* | Wind** | Luminosity | Snow |
|---|---|---|---|---|---|---|---|
| 1787655963 | 36.67° C | 28% | 1017.1 hPa | - | - | - | - |
| 1787655053 | 37.78° C | 29% | 1017 hPa | - | - | - | - |
| 1787654152 | 37.22° C | 25% | 1017.2 hPa | - | - | - | - |
| 1787653252 | 35.56° C | 27% | 1017.1 hPa | - | - | - | - |
| 1787652350 | 35.56° C | 29% | 1017.4 hPa | - | - | - | - |
| 1787651450 | 37.78° C | 26% | 1017.4 hPa | - | - | - | - |
| 1787650550 | 42.22° C | 22% | 1017.7 hPa | - | - | - | - |
| 1787649650 | 44.44° C | 18% | 1017.6 hPa | - | - | - | - |
| 1787648750 | 46.11° C | 19% | 1017.8 hPa | - | - | - | - |
| 1787647849 | 47.78° C | 18% | 1017.9 hPa | - | - | - | - |
| 1787646949 | 45° C | 22% | 1018 hPa | - | - | - | - |
| 1787646049 | 43.89° C | 24% | 1018.1 hPa | - | - | - | - |
| 1787645152 | 42.22° C | 26% | 1018.2 hPa | - | - | - | - |
| 1787644248 | 41.67° C | 29% | 1018.2 hPa | - | - | - | - |
| 1787643348 | 40° C | 30% | 1018 hPa | - | - | - | - |
| 1787642447 | 40.56° C | 29% | 1017.9 hPa | - | - | - | - |
| 1787641543 | 40° C | 31% | 1017.9 hPa | - | - | - | - |
| 1787640644 | 39.44° C | 31% | 1017.7 hPa | - | - | - | - |
| 1787639741 | 37.78° C | 31% | 1017.7 hPa | - | - | - | - |
| 1787638841 | 37.78° C | 33% | 1017.5 hPa | - | - | - | - |
| 1787637937 | 35.56° C | 37% | 1017.4 hPa | - | - | - | - |
| 1787637036 | 35° C | 36% | 1017.4 hPa | - | - | - | - |
| 1787636136 | 36.67° C | 33% | 1017.3 hPa | - | - | - | - |
| 1787635236 | 37.22° C | 31% | 1017.2 hPa | - | - | - | - |
| 1787634335 | 35.56° C | 33% | 1017.1 hPa | - | - | - | - |
* Rain since midnight (hover to see other rain measurements)
** Current wind speed in m/s (hover to see current wind gust speed)